sensor_id;sensor_type;location;lat;lon;timestamp;P1;durP1;ratioP1;P2;durP2;ratioP2
7080;SDS011;3582;51.506;11.948;2023-07-29T00:00:56;1.87;;;1.77;;
7080;SDS011;3582;51.506;11.948;2023-07-29T00:03:22;2.63;;;2.17;;
7080;SDS011;3582;51.506;11.948;2023-07-29T00:05:48;5.30;;;2.20;;
7080;SDS011;3582;51.506;11.948;2023-07-29T00:08:14;1.90;;;1.80;;
7080;SDS011;3582;51.506;11.948;2023-07-29T00:10:40;2.60;;;2.40;;
7080;SDS011;3582;51.506;11.948;2023-07-29T00:13:06;3.53;;;2.07;;
7080;SDS011;3582;51.506;11.948;2023-07-29T00:15:32;2.33;;;2.23;;
7080;SDS011;3582;51.506;11.948;2023-07-29T00:17:58;2.43;;;2.27;;
7080;SDS011;3582;51.506;11.948;2023-07-29T00:20:25;4.53;;;2.00;;
7080;SDS011;3582;51.506;11.948;2023-07-29T00:22:51;2.37;;;2.23;;
7080;SDS011;3582;51.506;11.948;2023-07-29T00:25:20;2.73;;;2.40;;
7080;SDS011;3582;51.506;11.948;2023-07-29T00:27:46;2.27;;;2.17;;
7080;SDS011;3582;51.506;11.948;2023-07-29T00:30:12;3.60;;;3.40;;
7080;SDS011;3582;51.506;11.948;2023-07-29T00:32:38;2.97;;;2.23;;
7080;SDS011;3582;51.506;11.948;2023-07-29T00:35:04;3.03;;;2.83;;
7080;SDS011;3582;51.506;11.948;2023-07-29T00:37:30;2.47;;;2.37;;
7080;SDS011;3582;51.506;11.948;2023-07-29T00:39:56;2.47;;;2.37;;
7080;SDS011;3582;51.506;11.948;2023-07-29T00:42:23;4.33;;;2.23;;
7080;SDS011;3582;51.506;11.948;2023-07-29T00:44:49;2.17;;;2.07;;
7080;SDS011;3582;51.506;11.948;2023-07-29T00:47:15;2.37;;;2.27;;
7080;SDS011;3582;51.506;11.948;2023-07-29T00:49:42;2.73;;;2.57;;
7080;SDS011;3582;51.506;11.948;2023-07-29T00:52:08;2.50;;;2.40;;
7080;SDS011;3582;51.506;11.948;2023-07-29T00:54:37;2.57;;;2.37;;
7080;SDS011;3582;51.506;11.948;2023-07-29T00:57:03;2.33;;;2.20;;
7080;SDS011;3582;51.506;11.948;2023-07-29T00:59:29;2.20;;;2.00;;
7080;SDS011;3582;51.506;11.948;2023-07-29T01:01:56;2.23;;;2.03;;
7080;SDS011;3582;51.506;11.948;2023-07-29T01:04:23;2.00;;;1.90;;
7080;SDS011;3582;51.506;11.948;2023-07-29T01:12:01;1.70;;;1.70;;
7080;SDS011;3582;51.506;11.948;2023-07-29T01:17:07;2.27;;;2.17;;
7080;SDS011;3582;51.506;11.948;2023-07-29T01:19:48;2.53;;;2.23;;
7080;SDS011;3582;51.506;11.948;2023-07-29T01:22:21;2.20;;;2.10;;
7080;SDS011;3582;51.506;11.948;2023-07-29T01:24:47;1.97;;;1.77;;
7080;SDS011;3582;51.506;11.948;2023-07-29T01:27:13;3.33;;;1.73;;
7080;SDS011;3582;51.506;11.948;2023-07-29T01:29:39;2.07;;;1.97;;
7080;SDS011;3582;51.506;11.948;2023-07-29T01:32:07;2.27;;;2.17;;
7080;SDS011;3582;51.506;11.948;2023-07-29T01:34:39;2.53;;;2.43;;
7080;SDS011;3582;51.506;11.948;2023-07-29T01:37:07;2.40;;;2.20;;
7080;SDS011;3582;51.506;11.948;2023-07-29T01:39:35;2.10;;;2.00;;
7080;SDS011;3582;51.506;11.948;2023-07-29T01:42:02;2.40;;;2.30;;
7080;SDS011;3582;51.506;11.948;2023-07-29T01:44:28;2.13;;;2.03;;
7080;SDS011;3582;51.506;11.948;2023-07-29T01:46:55;2.20;;;2.00;;
7080;SDS011;3582;51.506;11.948;2023-07-29T01:49:21;1.60;;;1.60;;
7080;SDS011;3582;51.506;11.948;2023-07-29T01:51:47;5.10;;;2.40;;
7080;SDS011;3582;51.506;11.948;2023-07-29T01:54:13;2.00;;;1.90;;
7080;SDS011;3582;51.506;11.948;2023-07-29T01:56:39;1.80;;;1.70;;
7080;SDS011;3582;51.506;11.948;2023-07-29T01:59:05;2.00;;;1.90;;
7080;SDS011;3582;51.506;11.948;2023-07-29T02:01:31;2.00;;;1.80;;
7080;SDS011;3582;51.506;11.948;2023-07-29T02:03:57;3.80;;;1.87;;
7080;SDS011;3582;51.506;11.948;2023-07-29T02:06:23;2.70;;;1.80;;
7080;SDS011;3582;51.506;11.948;2023-07-29T02:08:49;2.40;;;2.30;;
7080;SDS011;3582;51.506;11.948;2023-07-29T02:11:15;2.10;;;2.00;;
7080;SDS011;3582;51.506;11.948;2023-07-29T02:13:41;1.80;;;1.70;;
7080;SDS011;3582;51.506;11.948;2023-07-29T02:16:07;2.20;;;2.10;;
7080;SDS011;3582;51.506;11.948;2023-07-29T02:18:33;2.03;;;1.93;;
7080;SDS011;3582;51.506;11.948;2023-07-29T02:20:59;2.50;;;2.40;;
7080;SDS011;3582;51.506;11.948;2023-07-29T02:23:25;2.13;;;2.03;;
7080;SDS011;3582;51.506;11.948;2023-07-29T02:25:51;2.10;;;2.00;;
7080;SDS011;3582;51.506;11.948;2023-07-29T02:28:17;2.50;;;2.30;;
7080;SDS011;3582;51.506;11.948;2023-07-29T02:30:43;2.70;;;2.50;;
7080;SDS011;3582;51.506;11.948;2023-07-29T02:33:10;2.80;;;2.70;;
7080;SDS011;3582;51.506;11.948;2023-07-29T02:35:36;2.57;;;2.47;;
7080;SDS011;3582;51.506;11.948;2023-07-29T02:38:02;3.10;;;2.90;;
7080;SDS011;3582;51.506;11.948;2023-07-29T02:40:27;3.23;;;2.80;;
7080;SDS011;3582;51.506;11.948;2023-07-29T02:42:54;3.00;;;2.80;;
7080;SDS011;3582;51.506;11.948;2023-07-29T02:45:20;2.97;;;2.77;;
7080;SDS011;3582;51.506;11.948;2023-07-29T02:47:46;3.07;;;2.80;;
7080;SDS011;3582;51.506;11.948;2023-07-29T02:50:12;2.80;;;2.70;;
7080;SDS011;3582;51.506;11.948;2023-07-29T02:52:38;2.50;;;2.30;;
7080;SDS011;3582;51.506;11.948;2023-07-29T02:55:04;2.87;;;2.77;;
7080;SDS011;3582;51.506;11.948;2023-07-29T02:57:30;3.33;;;3.13;;
7080;SDS011;3582;51.506;11.948;2023-07-29T02:59:56;2.77;;;2.63;;
7080;SDS011;3582;51.506;11.948;2023-07-29T03:02:22;2.80;;;2.60;;
7080;SDS011;3582;51.506;11.948;2023-07-29T03:04:48;4.03;;;2.73;;
7080;SDS011;3582;51.506;11.948;2023-07-29T03:07:14;2.93;;;2.80;;
7080;SDS011;3582;51.506;11.948;2023-07-29T03:09:41;3.33;;;3.00;;
7080;SDS011;3582;51.506;11.948;2023-07-29T03:12:07;2.60;;;2.50;;
7080;SDS011;3582;51.506;11.948;2023-07-29T03:14:33;5.40;;;2.43;;
7080;SDS011;3582;51.506;11.948;2023-07-29T03:17:02;4.10;;;3.47;;
7080;SDS011;3582;51.506;11.948;2023-07-29T03:19:29;3.03;;;2.83;;
7080;SDS011;3582;51.506;11.948;2023-07-29T03:21:57;3.20;;;3.00;;
7080;SDS011;3582;51.506;11.948;2023-07-29T03:24:23;3.00;;;2.80;;
7080;SDS011;3582;51.506;11.948;2023-07-29T03:26:49;2.87;;;2.50;;
7080;SDS011;3582;51.506;11.948;2023-07-29T03:29:15;2.70;;;2.60;;
7080;SDS011;3582;51.506;11.948;2023-07-29T03:31:41;2.83;;;2.63;;
7080;SDS011;3582;51.506;11.948;2023-07-29T03:34:07;2.80;;;2.60;;
7080;SDS011;3582;51.506;11.948;2023-07-29T03:36:35;3.10;;;2.90;;
7080;SDS011;3582;51.506;11.948;2023-07-29T03:39:01;3.13;;;2.87;;
7080;SDS011;3582;51.506;11.948;2023-07-29T03:41:28;2.90;;;2.80;;
7080;SDS011;3582;51.506;11.948;2023-07-29T03:43:54;3.20;;;3.00;;
7080;SDS011;3582;51.506;11.948;2023-07-29T03:46:20;3.00;;;2.73;;
7080;SDS011;3582;51.506;11.948;2023-07-29T03:48:47;3.03;;;2.83;;
7080;SDS011;3582;51.506;11.948;2023-07-29T03:51:13;3.13;;;2.83;;
7080;SDS011;3582;51.506;11.948;2023-07-29T03:53:39;3.30;;;2.73;;
7080;SDS011;3582;51.506;11.948;2023-07-29T03:56:05;3.33;;;2.70;;
7080;SDS011;3582;51.506;11.948;2023-07-29T03:58:31;2.97;;;2.77;;
7080;SDS011;3582;51.506;11.948;2023-07-29T04:00:57;3.23;;;2.90;;
7080;SDS011;3582;51.506;11.948;2023-07-29T04:03:23;2.90;;;2.70;;
7080;SDS011;3582;51.506;11.948;2023-07-29T04:05:49;2.90;;;2.70;;
7080;SDS011;3582;51.506;11.948;2023-07-29T04:08:14;3.07;;;2.57;;
7080;SDS011;3582;51.506;11.948;2023-07-29T04:10:40;2.60;;;2.40;;
7080;SDS011;3582;51.506;11.948;2023-07-29T04:13:06;3.93;;;3.73;;
7080;SDS011;3582;51.506;11.948;2023-07-29T04:15:32;3.23;;;3.03;;
7080;SDS011;3582;51.506;11.948;2023-07-29T04:17:58;3.17;;;2.87;;
7080;SDS011;3582;51.506;11.948;2023-07-29T04:20:24;3.13;;;2.90;;
7080;SDS011;3582;51.506;11.948;2023-07-29T04:22:50;2.37;;;2.27;;
7080;SDS011;3582;51.506;11.948;2023-07-29T04:25:16;3.03;;;2.37;;
7080;SDS011;3582;51.506;11.948;2023-07-29T04:27:42;2.50;;;2.30;;
7080;SDS011;3582;51.506;11.948;2023-07-29T04:30:08;3.13;;;2.83;;
7080;SDS011;3582;51.506;11.948;2023-07-29T04:32:34;5.07;;;2.97;;
7080;SDS011;3582;51.506;11.948;2023-07-29T04:35:00;3.10;;;2.90;;
7080;SDS011;3582;51.506;11.948;2023-07-29T04:37:26;2.33;;;2.23;;
7080;SDS011;3582;51.506;11.948;2023-07-29T04:39:52;4.07;;;3.80;;
7080;SDS011;3582;51.506;11.948;2023-07-29T04:42:18;3.10;;;2.90;;
7080;SDS011;3582;51.506;11.948;2023-07-29T04:44:44;3.07;;;2.80;;
7080;SDS011;3582;51.506;11.948;2023-07-29T04:47:10;2.90;;;2.80;;
7080;SDS011;3582;51.506;11.948;2023-07-29T04:49:36;2.97;;;2.77;;
7080;SDS011;3582;51.506;11.948;2023-07-29T04:52:02;2.80;;;2.70;;
7080;SDS011;3582;51.506;11.948;2023-07-29T04:54:28;3.93;;;3.57;;
7080;SDS011;3582;51.506;11.948;2023-07-29T04:56:54;3.40;;;2.60;;
7080;SDS011;3582;51.506;11.948;2023-07-29T04:59:20;2.77;;;2.40;;
7080;SDS011;3582;51.506;11.948;2023-07-29T05:01:46;2.93;;;2.70;;
7080;SDS011;3582;51.506;11.948;2023-07-29T05:04:12;3.30;;;2.80;;
7080;SDS011;3582;51.506;11.948;2023-07-29T05:06:38;2.50;;;2.40;;
7080;SDS011;3582;51.506;11.948;2023-07-29T05:09:16;2.10;;;1.90;;
7080;SDS011;3582;51.506;11.948;2023-07-29T05:11:43;4.07;;;2.40;;
7080;SDS011;3582;51.506;11.948;2023-07-29T05:14:12;2.90;;;2.70;;
7080;SDS011;3582;51.506;11.948;2023-07-29T05:16:39;3.00;;;2.80;;
7080;SDS011;3582;51.506;11.948;2023-07-29T05:19:05;3.33;;;3.03;;
7080;SDS011;3582;51.506;11.948;2023-07-29T05:21:31;2.97;;;2.47;;
7080;SDS011;3582;51.506;11.948;2023-07-29T05:23:57;3.87;;;2.63;;
7080;SDS011;3582;51.506;11.948;2023-07-29T05:26:23;2.30;;;2.20;;
7080;SDS011;3582;51.506;11.948;2023-07-29T05:28:49;2.77;;;2.67;;
7080;SDS011;3582;51.506;11.948;2023-07-29T05:31:15;2.30;;;2.20;;
7080;SDS011;3582;51.506;11.948;2023-07-29T05:33:41;2.17;;;2.07;;
7080;SDS011;3582;51.506;11.948;2023-07-29T05:36:07;6.83;;;2.50;;
7080;SDS011;3582;51.506;11.948;2023-07-29T05:38:33;2.23;;;2.03;;
7080;SDS011;3582;51.506;11.948;2023-07-29T05:40:59;2.30;;;2.10;;
7080;SDS011;3582;51.506;11.948;2023-07-29T05:43:25;1.93;;;1.83;;
7080;SDS011;3582;51.506;11.948;2023-07-29T05:45:51;1.60;;;1.50;;
7080;SDS011;3582;51.506;11.948;2023-07-29T05:48:19;1.93;;;1.83;;
7080;SDS011;3582;51.506;11.948;2023-07-29T05:50:45;1.70;;;1.60;;
7080;SDS011;3582;51.506;11.948;2023-07-29T05:53:11;2.80;;;1.97;;
7080;SDS011;3582;51.506;11.948;2023-07-29T05:55:37;1.80;;;1.70;;
7080;SDS011;3582;51.506;11.948;2023-07-29T05:58:03;1.67;;;1.57;;
7080;SDS011;3582;51.506;11.948;2023-07-29T06:00:29;2.30;;;1.83;;
7080;SDS011;3582;51.506;11.948;2023-07-29T06:02:55;1.63;;;1.57;;
7080;SDS011;3582;51.506;11.948;2023-07-29T06:05:20;1.80;;;1.57;;
7080;SDS011;3582;51.506;11.948;2023-07-29T06:07:47;1.50;;;1.40;;
7080;SDS011;3582;51.506;11.948;2023-07-29T06:10:14;1.63;;;1.53;;
7080;SDS011;3582;51.506;11.948;2023-07-29T06:12:43;1.70;;;1.60;;
7080;SDS011;3582;51.506;11.948;2023-07-29T06:15:09;2.50;;;1.80;;
7080;SDS011;3582;51.506;11.948;2023-07-29T06:17:35;1.50;;;1.50;;
7080;SDS011;3582;51.506;11.948;2023-07-29T06:20:01;2.00;;;1.90;;
7080;SDS011;3582;51.506;11.948;2023-07-29T06:22:28;2.13;;;1.70;;
7080;SDS011;3582;51.506;11.948;2023-07-29T06:24:54;2.60;;;2.00;;
7080;SDS011;3582;51.506;11.948;2023-07-29T06:27:20;2.03;;;1.90;;
7080;SDS011;3582;51.506;11.948;2023-07-29T06:29:45;1.97;;;1.87;;
7080;SDS011;3582;51.506;11.948;2023-07-29T06:32:11;2.57;;;1.70;;
7080;SDS011;3582;51.506;11.948;2023-07-29T06:34:37;2.80;;;2.10;;
7080;SDS011;3582;51.506;11.948;2023-07-29T06:37:03;3.50;;;3.13;;
7080;SDS011;3582;51.506;11.948;2023-07-29T06:39:29;2.20;;;1.57;;
7080;SDS011;3582;51.506;11.948;2023-07-29T06:41:55;4.27;;;2.20;;
7080;SDS011;3582;51.506;11.948;2023-07-29T06:44:21;2.13;;;2.03;;
7080;SDS011;3582;51.506;11.948;2023-07-29T06:46:47;2.10;;;2.00;;
7080;SDS011;3582;51.506;11.948;2023-07-29T06:49:13;2.23;;;2.03;;
7080;SDS011;3582;51.506;11.948;2023-07-29T06:51:39;6.53;;;2.33;;
7080;SDS011;3582;51.506;11.948;2023-07-29T06:54:05;2.40;;;2.30;;
7080;SDS011;3582;51.506;11.948;2023-07-29T06:56:31;2.50;;;2.30;;
7080;SDS011;3582;51.506;11.948;2023-07-29T06:58:57;3.23;;;2.97;;
7080;SDS011;3582;51.506;11.948;2023-07-29T07:01:23;2.03;;;1.93;;
7080;SDS011;3582;51.506;11.948;2023-07-29T07:03:49;1.97;;;1.90;;
7080;SDS011;3582;51.506;11.948;2023-07-29T07:06:15;2.07;;;1.97;;
7080;SDS011;3582;51.506;11.948;2023-07-29T07:08:41;2.40;;;1.93;;
7080;SDS011;3582;51.506;11.948;2023-07-29T07:11:09;2.07;;;1.90;;
7080;SDS011;3582;51.506;11.948;2023-07-29T07:13:35;2.80;;;2.70;;
7080;SDS011;3582;51.506;11.948;2023-07-29T07:16:01;1.97;;;1.87;;
7080;SDS011;3582;51.506;11.948;2023-07-29T07:18:26;4.53;;;2.20;;
7080;SDS011;3582;51.506;11.948;2023-07-29T07:20:53;2.30;;;2.20;;
7080;SDS011;3582;51.506;11.948;2023-07-29T07:23:19;2.13;;;2.03;;
7080;SDS011;3582;51.506;11.948;2023-07-29T07:25:45;2.37;;;2.27;;
7080;SDS011;3582;51.506;11.948;2023-07-29T07:28:11;2.47;;;2.37;;
7080;SDS011;3582;51.506;11.948;2023-07-29T07:30:40;2.20;;;2.10;;
7080;SDS011;3582;51.506;11.948;2023-07-29T07:33:06;2.30;;;2.20;;
7080;SDS011;3582;51.506;11.948;2023-07-29T07:35:32;3.10;;;2.70;;
7080;SDS011;3582;51.506;11.948;2023-07-29T07:37:58;2.90;;;2.80;;
7080;SDS011;3582;51.506;11.948;2023-07-29T07:40:26;3.37;;;3.07;;
7080;SDS011;3582;51.506;11.948;2023-07-29T07:42:52;2.97;;;2.77;;
7080;SDS011;3582;51.506;11.948;2023-07-29T07:45:19;3.30;;;2.83;;
7080;SDS011;3582;51.506;11.948;2023-07-29T07:47:45;2.53;;;2.43;;
7080;SDS011;3582;51.506;11.948;2023-07-29T07:50:11;3.17;;;2.97;;
7080;SDS011;3582;51.506;11.948;2023-07-29T07:52:39;4.13;;;2.50;;
7080;SDS011;3582;51.506;11.948;2023-07-29T07:55:05;2.73;;;2.53;;
7080;SDS011;3582;51.506;11.948;2023-07-29T07:57:31;2.70;;;2.50;;
7080;SDS011;3582;51.506;11.948;2023-07-29T07:59:57;3.13;;;2.20;;
7080;SDS011;3582;51.506;11.948;2023-07-29T08:02:23;5.77;;;2.43;;
7080;SDS011;3582;51.506;11.948;2023-07-29T08:04:49;2.67;;;2.47;;
7080;SDS011;3582;51.506;11.948;2023-07-29T08:07:15;4.63;;;3.60;;
7080;SDS011;3582;51.506;11.948;2023-07-29T08:09:40;3.43;;;2.37;;
7080;SDS011;3582;51.506;11.948;2023-07-29T08:12:06;2.33;;;2.23;;
7080;SDS011;3582;51.506;11.948;2023-07-29T08:14:32;2.50;;;2.30;;
7080;SDS011;3582;51.506;11.948;2023-07-29T08:16:58;2.70;;;2.50;;
7080;SDS011;3582;51.506;11.948;2023-07-29T08:19:24;2.27;;;2.17;;
7080;SDS011;3582;51.506;11.948;2023-07-29T08:21:50;2.03;;;1.93;;
7080;SDS011;3582;51.506;11.948;2023-07-29T08:24:16;2.37;;;2.27;;
7080;SDS011;3582;51.506;11.948;2023-07-29T08:26:42;3.17;;;2.10;;
7080;SDS011;3582;51.506;11.948;2023-07-29T08:29:08;2.70;;;2.50;;
7080;SDS011;3582;51.506;11.948;2023-07-29T08:31:34;2.40;;;2.30;;
7080;SDS011;3582;51.506;11.948;2023-07-29T08:34:00;2.70;;;2.50;;
7080;SDS011;3582;51.506;11.948;2023-07-29T08:36:26;2.90;;;2.70;;
7080;SDS011;3582;51.506;11.948;2023-07-29T08:38:52;2.20;;;2.10;;
7080;SDS011;3582;51.506;11.948;2023-07-29T08:46:15;2.17;;;2.07;;
7080;SDS011;3582;51.506;11.948;2023-07-29T08:48:42;1.73;;;1.63;;
7080;SDS011;3582;51.506;11.948;2023-07-29T08:51:09;1.20;;;1.20;;
7080;SDS011;3582;51.506;11.948;2023-07-29T08:53:36;1.87;;;1.80;;
7080;SDS011;3582;51.506;11.948;2023-07-29T08:56:02;2.00;;;1.90;;
7080;SDS011;3582;51.506;11.948;2023-07-29T08:58:28;2.13;;;1.60;;
7080;SDS011;3582;51.506;11.948;2023-07-29T09:00:54;2.40;;;2.30;;
7080;SDS011;3582;51.506;11.948;2023-07-29T09:03:20;2.10;;;2.00;;
7080;SDS011;3582;51.506;11.948;2023-07-29T09:05:47;2.20;;;2.10;;
7080;SDS011;3582;51.506;11.948;2023-07-29T09:08:13;3.67;;;1.57;;
7080;SDS011;3582;51.506;11.948;2023-07-29T09:10:39;1.63;;;1.53;;
7080;SDS011;3582;51.506;11.948;2023-07-29T09:13:05;3.53;;;3.33;;
7080;SDS011;3582;51.506;11.948;2023-07-29T09:15:32;1.77;;;1.70;;
7080;SDS011;3582;51.506;11.948;2023-07-29T09:17:59;1.90;;;1.80;;
7080;SDS011;3582;51.506;11.948;2023-07-29T09:20:25;2.10;;;1.37;;
7080;SDS011;3582;51.506;11.948;2023-07-29T09:22:52;1.60;;;1.50;;
7080;SDS011;3582;51.506;11.948;2023-07-29T09:25:22;1.10;;;1.10;;
7080;SDS011;3582;51.506;11.948;2023-07-29T09:27:49;2.53;;;1.57;;
7080;SDS011;3582;51.506;11.948;2023-07-29T09:30:15;1.30;;;1.30;;
7080;SDS011;3582;51.506;11.948;2023-07-29T09:32:41;2.33;;;1.30;;
7080;SDS011;3582;51.506;11.948;2023-07-29T09:35:09;1.97;;;1.67;;
7080;SDS011;3582;51.506;11.948;2023-07-29T09:37:36;1.47;;;1.30;;
7080;SDS011;3582;51.506;11.948;2023-07-29T09:40:03;2.47;;;1.73;;
7080;SDS011;3582;51.506;11.948;2023-07-29T09:42:29;1.77;;;1.67;;
7080;SDS011;3582;51.506;11.948;2023-07-29T09:44:55;1.70;;;1.60;;
7080;SDS011;3582;51.506;11.948;2023-07-29T09:47:22;1.77;;;1.67;;
7080;SDS011;3582;51.506;11.948;2023-07-29T09:49:48;3.00;;;2.27;;
7080;SDS011;3582;51.506;11.948;2023-07-29T09:52:15;2.07;;;1.40;;
7080;SDS011;3582;51.506;11.948;2023-07-29T09:54:42;1.97;;;1.87;;
7080;SDS011;3582;51.506;11.948;2023-07-29T09:57:09;2.10;;;1.90;;
7080;SDS011;3582;51.506;11.948;2023-07-29T09:59:35;3.13;;;2.07;;
7080;SDS011;3582;51.506;11.948;2023-07-29T10:02:01;1.53;;;1.40;;
7080;SDS011;3582;51.506;11.948;2023-07-29T10:04:27;1.60;;;1.60;;
7080;SDS011;3582;51.506;11.948;2023-07-29T10:06:54;2.33;;;2.20;;
7080;SDS011;3582;51.506;11.948;2023-07-29T10:09:20;1.27;;;1.27;;
7080;SDS011;3582;51.506;11.948;2023-07-29T10:11:47;1.70;;;1.60;;
7080;SDS011;3582;51.506;11.948;2023-07-29T10:14:14;2.13;;;1.93;;
7080;SDS011;3582;51.506;11.948;2023-07-29T10:16:41;1.53;;;1.43;;
7080;SDS011;3582;51.506;11.948;2023-07-29T10:19:10;2.43;;;1.90;;
7080;SDS011;3582;51.506;11.948;2023-07-29T10:21:38;1.87;;;1.70;;
7080;SDS011;3582;51.506;11.948;2023-07-29T10:24:06;1.70;;;1.60;;
7080;SDS011;3582;51.506;11.948;2023-07-29T10:26:33;1.27;;;1.27;;
7080;SDS011;3582;51.506;11.948;2023-07-29T10:29:01;1.80;;;1.70;;
7080;SDS011;3582;51.506;11.948;2023-07-29T10:31:30;1.77;;;1.70;;
7080;SDS011;3582;51.506;11.948;2023-07-29T10:33:57;1.70;;;1.60;;
7080;SDS011;3582;51.506;11.948;2023-07-29T10:36:23;2.90;;;1.87;;
7080;SDS011;3582;51.506;11.948;2023-07-29T10:38:49;2.07;;;1.87;;
7080;SDS011;3582;51.506;11.948;2023-07-29T10:41:15;1.83;;;1.73;;
7080;SDS011;3582;51.506;11.948;2023-07-29T10:43:41;1.93;;;1.83;;
7080;SDS011;3582;51.506;11.948;2023-07-29T10:48:43;1.83;;;1.73;;
7080;SDS011;3582;51.506;11.948;2023-07-29T10:51:21;1.57;;;1.57;;
7080;SDS011;3582;51.506;11.948;2023-07-29T10:53:47;1.77;;;1.67;;
7080;SDS011;3582;51.506;11.948;2023-07-29T10:56:20;3.77;;;2.23;;
7080;SDS011;3582;51.506;11.948;2023-07-29T10:58:50;3.30;;;1.83;;
7080;SDS011;3582;51.506;11.948;2023-07-29T11:01:26;5.27;;;1.80;;
7080;SDS011;3582;51.506;11.948;2023-07-29T11:07:01;1.60;;;1.60;;
7080;SDS011;3582;51.506;11.948;2023-07-29T11:09:42;1.70;;;1.60;;
7080;SDS011;3582;51.506;11.948;2023-07-29T11:14:53;3.60;;;2.20;;
7080;SDS011;3582;51.506;11.948;2023-07-29T11:17:19;2.10;;;2.00;;
7080;SDS011;3582;51.506;11.948;2023-07-29T11:19:45;2.10;;;2.00;;
7080;SDS011;3582;51.506;11.948;2023-07-29T11:22:11;1.90;;;1.80;;
7080;SDS011;3582;51.506;11.948;2023-07-29T11:24:37;3.07;;;1.90;;
7080;SDS011;3582;51.506;11.948;2023-07-29T11:27:03;2.03;;;1.83;;
7080;SDS011;3582;51.506;11.948;2023-07-29T11:29:29;4.33;;;2.40;;
7080;SDS011;3582;51.506;11.948;2023-07-29T11:31:55;2.60;;;2.40;;
7080;SDS011;3582;51.506;11.948;2023-07-29T11:34:31;1.90;;;1.57;;
7080;SDS011;3582;51.506;11.948;2023-07-29T11:36:57;1.83;;;1.73;;
7080;SDS011;3582;51.506;11.948;2023-07-29T11:39:23;1.90;;;1.80;;
7080;SDS011;3582;51.506;11.948;2023-07-29T11:41:49;2.60;;;2.40;;
7080;SDS011;3582;51.506;11.948;2023-07-29T11:44:18;2.37;;;2.20;;
7080;SDS011;3582;51.506;11.948;2023-07-29T11:46:44;2.30;;;2.17;;
7080;SDS011;3582;51.506;11.948;2023-07-29T11:49:10;3.47;;;2.57;;
7080;SDS011;3582;51.506;11.948;2023-07-29T11:51:36;1.80;;;1.70;;
7080;SDS011;3582;51.506;11.948;2023-07-29T11:54:03;2.20;;;2.10;;
7080;SDS011;3582;51.506;11.948;2023-07-29T11:56:29;2.30;;;2.20;;
7080;SDS011;3582;51.506;11.948;2023-07-29T11:58:55;1.97;;;1.87;;
7080;SDS011;3582;51.506;11.948;2023-07-29T12:01:22;2.13;;;2.03;;
7080;SDS011;3582;51.506;11.948;2023-07-29T12:03:48;2.10;;;1.90;;
7080;SDS011;3582;51.506;11.948;2023-07-29T12:06:15;1.80;;;1.70;;
7080;SDS011;3582;51.506;11.948;2023-07-29T12:08:41;2.40;;;2.00;;
7080;SDS011;3582;51.506;11.948;2023-07-29T12:11:08;2.07;;;1.87;;
7080;SDS011;3582;51.506;11.948;2023-07-29T12:13:36;1.93;;;1.70;;
7080;SDS011;3582;51.506;11.948;2023-07-29T12:16:02;2.20;;;2.10;;
7080;SDS011;3582;51.506;11.948;2023-07-29T12:18:29;2.17;;;2.00;;
7080;SDS011;3582;51.506;11.948;2023-07-29T12:20:56;2.67;;;2.57;;
7080;SDS011;3582;51.506;11.948;2023-07-29T12:23:25;2.40;;;2.20;;
7080;SDS011;3582;51.506;11.948;2023-07-29T12:25:51;4.07;;;2.00;;
7080;SDS011;3582;51.506;11.948;2023-07-29T12:28:17;2.27;;;2.07;;
7080;SDS011;3582;51.506;11.948;2023-07-29T12:30:43;1.73;;;1.63;;
7080;SDS011;3582;51.506;11.948;2023-07-29T12:33:09;2.80;;;2.60;;
7080;SDS011;3582;51.506;11.948;2023-07-29T12:35:38;2.00;;;1.87;;
7080;SDS011;3582;51.506;11.948;2023-07-29T12:38:04;2.13;;;2.03;;
7080;SDS011;3582;51.506;11.948;2023-07-29T12:40:30;2.53;;;2.43;;
7080;SDS011;3582;51.506;11.948;2023-07-29T12:42:56;2.90;;;1.60;;
7080;SDS011;3582;51.506;11.948;2023-07-29T12:45:23;3.27;;;2.10;;
7080;SDS011;3582;51.506;11.948;2023-07-29T12:47:51;2.23;;;2.13;;
7080;SDS011;3582;51.506;11.948;2023-07-29T12:50:17;2.17;;;2.07;;
7080;SDS011;3582;51.506;11.948;2023-07-29T12:52:43;1.70;;;1.60;;
7080;SDS011;3582;51.506;11.948;2023-07-29T12:55:09;2.37;;;2.17;;
7080;SDS011;3582;51.506;11.948;2023-07-29T12:57:38;2.53;;;2.07;;
7080;SDS011;3582;51.506;11.948;2023-07-29T13:00:04;2.07;;;1.97;;
7080;SDS011;3582;51.506;11.948;2023-07-29T13:02:31;3.97;;;2.57;;
7080;SDS011;3582;51.506;11.948;2023-07-29T13:04:57;2.60;;;2.40;;
7080;SDS011;3582;51.506;11.948;2023-07-29T13:07:23;3.80;;;3.00;;
7080;SDS011;3582;51.506;11.948;2023-07-29T13:09:49;2.20;;;2.00;;
7080;SDS011;3582;51.506;11.948;2023-07-29T13:12:15;2.63;;;2.43;;
7080;SDS011;3582;51.506;11.948;2023-07-29T13:14:41;3.33;;;3.00;;
7080;SDS011;3582;51.506;11.948;2023-07-29T13:17:06;2.00;;;1.90;;
7080;SDS011;3582;51.506;11.948;2023-07-29T13:19:32;3.17;;;2.00;;
7080;SDS011;3582;51.506;11.948;2023-07-29T13:21:58;2.23;;;2.00;;
7080;SDS011;3582;51.506;11.948;2023-07-29T13:24:24;1.93;;;1.87;;
7080;SDS011;3582;51.506;11.948;2023-07-29T13:26:50;2.30;;;2.20;;
7080;SDS011;3582;51.506;11.948;2023-07-29T13:29:16;2.03;;;1.90;;
7080;SDS011;3582;51.506;11.948;2023-07-29T13:31:42;2.63;;;2.43;;
7080;SDS011;3582;51.506;11.948;2023-07-29T13:34:08;2.10;;;2.00;;
7080;SDS011;3582;51.506;11.948;2023-07-29T13:36:34;2.00;;;1.90;;
7080;SDS011;3582;51.506;11.948;2023-07-29T13:39:00;2.23;;;1.97;;
7080;SDS011;3582;51.506;11.948;2023-07-29T13:41:26;2.23;;;2.13;;
7080;SDS011;3582;51.506;11.948;2023-07-29T13:43:52;2.23;;;2.13;;
7080;SDS011;3582;51.506;11.948;2023-07-29T13:46:18;1.80;;;1.70;;
7080;SDS011;3582;51.506;11.948;2023-07-29T13:48:46;2.00;;;1.90;;
7080;SDS011;3582;51.506;11.948;2023-07-29T13:51:12;2.47;;;2.27;;
7080;SDS011;3582;51.506;11.948;2023-07-29T13:53:38;1.90;;;1.80;;
7080;SDS011;3582;51.506;11.948;2023-07-29T13:56:04;1.80;;;1.80;;
7080;SDS011;3582;51.506;11.948;2023-07-29T13:58:30;2.00;;;1.90;;
7080;SDS011;3582;51.506;11.948;2023-07-29T14:00:56;2.37;;;2.27;;
7080;SDS011;3582;51.506;11.948;2023-07-29T14:03:22;2.53;;;2.33;;
7080;SDS011;3582;51.506;11.948;2023-07-29T14:05:48;2.30;;;2.20;;
7080;SDS011;3582;51.506;11.948;2023-07-29T14:08:14;2.57;;;2.47;;
7080;SDS011;3582;51.506;11.948;2023-07-29T14:10:40;2.20;;;2.10;;
7080;SDS011;3582;51.506;11.948;2023-07-29T14:13:06;2.33;;;2.23;;
7080;SDS011;3582;51.506;11.948;2023-07-29T14:15:32;2.80;;;2.60;;
7080;SDS011;3582;51.506;11.948;2023-07-29T14:17:58;2.40;;;2.30;;
7080;SDS011;3582;51.506;11.948;2023-07-29T14:20:24;6.63;;;4.10;;
7080;SDS011;3582;51.506;11.948;2023-07-29T14:22:50;4.87;;;4.10;;
7080;SDS011;3582;51.506;11.948;2023-07-29T14:25:16;6.50;;;4.90;;
7080;SDS011;3582;51.506;11.948;2023-07-29T14:27:42;12.63;;;6.17;;
7080;SDS011;3582;51.506;11.948;2023-07-29T14:30:08;7.87;;;4.07;;
7080;SDS011;3582;51.506;11.948;2023-07-29T14:32:34;5.13;;;3.73;;
7080;SDS011;3582;51.506;11.948;2023-07-29T14:35:00;4.83;;;3.07;;
7080;SDS011;3582;51.506;11.948;2023-07-29T14:37:31;4.37;;;3.97;;
7080;SDS011;3582;51.506;11.948;2023-07-29T14:39:58;5.87;;;4.00;;
7080;SDS011;3582;51.506;11.948;2023-07-29T14:42:24;5.03;;;4.30;;
7080;SDS011;3582;51.506;11.948;2023-07-29T14:44:50;6.17;;;3.93;;
7080;SDS011;3582;51.506;11.948;2023-07-29T14:47:16;5.43;;;4.40;;
7080;SDS011;3582;51.506;11.948;2023-07-29T14:49:43;5.40;;;4.40;;
7080;SDS011;3582;51.506;11.948;2023-07-29T14:52:09;5.47;;;3.60;;
7080;SDS011;3582;51.506;11.948;2023-07-29T14:54:35;5.93;;;3.27;;
7080;SDS011;3582;51.506;11.948;2023-07-29T14:57:01;4.03;;;3.20;;
7080;SDS011;3582;51.506;11.948;2023-07-29T14:59:27;4.70;;;3.30;;
7080;SDS011;3582;51.506;11.948;2023-07-29T15:01:53;4.20;;;3.63;;
7080;SDS011;3582;51.506;11.948;2023-07-29T15:04:19;3.07;;;2.87;;
7080;SDS011;3582;51.506;11.948;2023-07-29T15:06:45;3.50;;;3.30;;
7080;SDS011;3582;51.506;11.948;2023-07-29T15:09:10;4.30;;;3.90;;
7080;SDS011;3582;51.506;11.948;2023-07-29T15:11:36;4.20;;;3.33;;
7080;SDS011;3582;51.506;11.948;2023-07-29T15:14:02;4.07;;;3.07;;
7080;SDS011;3582;51.506;11.948;2023-07-29T15:16:29;11.70;;;3.27;;